createdAt,value
2022-10-05T00:02:25.381Z,13.02
2022-10-05T00:07:25.240Z,12.63
2022-10-05T00:12:25.075Z,12.62
2022-10-05T00:17:25.002Z,12.79
2022-10-05T00:22:25.819Z,12.54
2022-10-05T00:27:24.838Z,12.64
2022-10-05T00:32:24.813Z,12.74
2022-10-05T00:37:24.719Z,12.66
2022-10-05T00:42:24.653Z,12.52
2022-10-05T00:47:24.689Z,12.75
2022-10-05T00:52:27.619Z,12.78
2022-10-05T00:57:24.644Z,12.63
2022-10-05T01:02:24.433Z,12.89
2022-10-05T01:07:24.450Z,12.93
2022-10-05T01:12:24.439Z,12.81
2022-10-05T01:17:24.413Z,12.97
2022-10-05T01:22:24.229Z,12.74
2022-10-05T01:27:24.054Z,12.93
2022-10-05T01:32:24.161Z,12.79
2022-10-05T01:37:23.894Z,12.87
2022-10-05T01:42:23.914Z,12.69
2022-10-05T01:47:23.854Z,12.78
2022-10-05T01:52:26.870Z,12.67
2022-10-05T01:57:23.878Z,12.52
2022-10-05T02:02:23.785Z,12.60
2022-10-05T02:07:23.518Z,12.44
2022-10-05T02:12:23.558Z,12.38
2022-10-05T02:17:31.318Z,11.94
2022-10-05T02:23:40.587Z,11.52
2022-10-05T02:28:40.313Z,11.36
2022-10-05T02:33:41.326Z,11.29
2022-10-05T02:38:40.139Z,11.13
2022-10-05T02:43:40.503Z,10.84
2022-10-05T02:48:40.193Z,10.88
2022-10-05T02:53:40.070Z,11.09
2022-10-05T02:58:40.028Z,10.89
2022-10-05T03:03:40.038Z,10.47
2022-10-05T03:08:39.954Z,10.22
2022-10-05T03:13:42.813Z,10.14
2022-10-05T03:18:39.815Z,9.96
2022-10-05T03:23:39.688Z,10.25
2022-10-05T03:28:39.633Z,10.03
2022-10-05T03:33:39.478Z,10.51
2022-10-05T03:38:39.508Z,10.52
2022-10-05T03:43:39.749Z,10.47
2022-10-05T03:48:39.413Z,10.37
2022-10-05T03:53:39.448Z,9.85
2022-10-05T03:58:39.225Z,10.17
2022-10-05T04:03:39.063Z,10.25
2022-10-05T04:08:39.094Z,10.18
2022-10-05T04:13:42.068Z,10.22
2022-10-05T04:18:38.868Z,9.67
2022-10-05T04:23:38.918Z,9.76
2022-10-05T04:28:38.778Z,9.89
2022-10-05T04:33:38.705Z,9.93
2022-10-05T04:38:39.404Z,9.48
2022-10-05T04:43:38.609Z,9.67
2022-10-05T04:48:38.513Z,9.79
2022-10-05T04:53:38.400Z,9.93
2022-10-05T04:58:42.237Z,10.12
2022-10-05T05:03:38.284Z,10.62
2022-10-05T05:08:38.158Z,10.71
2022-10-05T05:13:41.208Z,10.83
2022-10-05T05:18:45.953Z,10.68
2022-10-05T05:23:45.514Z,11.14
2022-10-05T05:28:38.063Z,11.13
2022-10-05T05:33:37.981Z,11.25
2022-10-05T05:38:37.863Z,11.39
2022-10-05T05:43:45.849Z,11.80
2022-10-05T05:48:45.318Z,12.30
2022-10-05T05:55:06.151Z,12.64
2022-10-05T06:00:06.121Z,12.66
2022-10-05T06:05:06.026Z,12.48
2022-10-05T06:10:05.859Z,12.75
2022-10-05T06:15:06.148Z,13.09
2022-10-05T06:20:05.857Z,14.06
2022-10-05T06:25:05.721Z,14.14
2022-10-05T06:30:05.691Z,14.71
2022-10-05T06:35:05.661Z,15.01
2022-10-05T06:40:05.404Z,14.61
2022-10-05T06:45:08.402Z,14.50
2022-10-05T06:50:05.352Z,15.20
2022-10-05T06:55:05.262Z,15.75
2022-10-05T07:00:14.626Z,16.70
2022-10-05T07:05:12.065Z,16.07
2022-10-05T07:10:05.058Z,15.56
2022-10-05T07:15:04.964Z,15.76
2022-10-05T07:20:05.009Z,16.20
2022-10-05T07:25:04.861Z,15.60
2022-10-05T07:30:04.805Z,16.40
2022-10-05T07:35:04.742Z,16.38
2022-10-05T07:40:04.690Z,16.23
2022-10-05T07:45:07.789Z,16.37
2022-10-05T07:50:04.627Z,16.11
2022-10-05T07:55:04.509Z,16.71
2022-10-05T08:00:04.380Z,16.52
2022-10-05T08:05:04.696Z,16.22
2022-10-05T08:10:04.229Z,16.90
2022-10-05T08:15:04.288Z,16.52
2022-10-05T08:20:04.076Z,16.93
2022-10-05T08:25:04.067Z,17.32
2022-10-05T08:30:03.975Z,17.73
2022-10-05T08:35:03.984Z,17.48
2022-10-05T08:40:04.107Z,16.85
2022-10-05T08:45:06.813Z,17.06
2022-10-05T08:50:03.699Z,17.28
2022-10-05T08:55:03.929Z,18.04
2022-10-05T09:00:03.572Z,18.00
2022-10-05T09:05:03.650Z,18.67
2022-10-05T09:10:03.474Z,19.15
2022-10-05T09:15:26.271Z,19.24
2022-10-05T09:20:04.330Z,19.33
2022-10-05T09:25:03.540Z,18.83
2022-10-05T09:30:03.220Z,19.48
2022-10-05T09:35:03.208Z,19.72
2022-10-05T09:40:03.121Z,19.51
2022-10-05T09:45:06.001Z,19.70
2022-10-05T09:50:02.892Z,19.42
2022-10-05T09:55:03.055Z,20.10
2022-10-05T10:00:02.867Z,20.39
2022-10-05T10:05:02.791Z,19.95
2022-10-05T10:10:02.638Z,20.05
2022-10-05T10:15:03.218Z,20.42
2022-10-05T10:20:02.581Z,20.79
2022-10-05T10:25:02.474Z,21.09
2022-10-05T10:30:02.546Z,21.42
2022-10-05T10:35:02.321Z,21.46
2022-10-05T10:40:02.371Z,21.45
2022-10-05T10:45:05.421Z,21.66
2022-10-05T10:50:02.115Z,21.71
2022-10-05T10:55:02.054Z,22.07
2022-10-05T11:00:01.940Z,22.06
2022-10-05T11:05:01.975Z,21.72
2022-10-05T11:10:01.814Z,21.69
2022-10-05T11:15:01.959Z,22.12
2022-10-05T11:20:04.389Z,22.01
2022-10-05T11:25:02.419Z,22.47
2022-10-05T11:30:01.541Z,22.25
2022-10-05T11:35:09.360Z,21.97
2022-10-05T11:40:01.425Z,21.75
2022-10-05T11:45:04.502Z,21.83
2022-10-05T11:50:01.313Z,21.74
2022-10-05T11:55:16.651Z,22.34
2022-10-05T12:00:02.488Z,22.17
2022-10-05T12:05:01.083Z,22.19
2022-10-05T12:10:01.175Z,22.31
2022-10-05T12:15:00.934Z,22.44
2022-10-05T12:20:01.063Z,22.35
2022-10-05T12:25:00.802Z,22.41
2022-10-05T12:30:00.896Z,22.34
2022-10-05T12:35:02.208Z,22.53
2022-10-05T12:40:00.641Z,22.49
2022-10-05T12:45:03.645Z,22.46
2022-10-05T12:50:00.710Z,22.53
2022-10-05T12:55:00.586Z,23.05
2022-10-05T13:00:00.393Z,22.92
2022-10-05T13:05:00.367Z,23.34
2022-10-05T13:10:00.293Z,23.42
2022-10-05T13:15:00.222Z,23.60
2022-10-05T13:20:00.431Z,23.35
2022-10-05T13:25:00.220Z,24.14
2022-10-05T13:30:00.019Z,23.97
2022-10-05T13:35:00.053Z,24.23
2022-10-05T13:39:59.870Z,24.31
2022-10-05T13:45:02.793Z,24.56
2022-10-05T13:49:59.714Z,24.63
2022-10-05T13:54:59.782Z,25.06
2022-10-05T13:59:59.609Z,24.77
2022-10-05T14:04:59.549Z,23.95
2022-10-05T14:09:59.655Z,24.10
2022-10-05T14:14:59.399Z,23.27
2022-10-05T14:19:59.318Z,22.87
2022-10-05T14:24:59.367Z,22.87
2022-10-05T14:29:59.249Z,23.01
2022-10-05T14:35:11.792Z,22.69
2022-10-05T14:39:59.009Z,22.25
2022-10-05T14:45:02.018Z,21.75
2022-10-05T14:50:06.812Z,21.71
2022-10-05T14:54:58.910Z,21.64
2022-10-05T14:59:58.810Z,21.51
2022-10-05T15:04:58.779Z,21.34
2022-10-05T15:09:58.708Z,21.14
2022-10-05T15:14:58.579Z,21.09
2022-10-05T15:19:58.519Z,21.08
2022-10-05T15:24:58.603Z,20.72
2022-10-05T15:29:58.551Z,20.76
2022-10-05T15:35:06.273Z,20.80
2022-10-05T15:39:58.205Z,21.01
2022-10-05T15:45:01.182Z,20.43
2022-10-05T15:49:58.255Z,20.33
2022-10-05T15:54:58.574Z,20.56
2022-10-05T15:59:57.978Z,20.49
2022-10-05T16:05:01.152Z,20.15
2022-10-05T16:09:58.980Z,20.23
2022-10-05T16:14:57.758Z,20.42
2022-10-05T16:19:57.740Z,20.10
2022-10-05T16:24:57.654Z,19.93
2022-10-05T16:29:57.645Z,19.87
2022-10-05T16:34:57.523Z,19.86
2022-10-05T16:39:57.505Z,19.90
2022-10-05T16:45:00.445Z,19.76
2022-10-05T16:49:57.433Z,19.58
2022-10-05T16:54:57.273Z,19.50
2022-10-05T16:59:57.215Z,19.38
2022-10-05T17:04:57.213Z,19.11
2022-10-05T17:11:17.161Z,19.06
2022-10-05T17:16:14.530Z,18.59
2022-10-05T17:21:14.644Z,18.37
2022-10-05T17:26:21.911Z,18.29
2022-10-05T17:31:14.543Z,17.79
2022-10-05T17:36:14.503Z,17.99
2022-10-05T17:41:14.307Z,18.13
2022-10-05T17:46:14.181Z,17.88
2022-10-05T17:51:14.043Z,17.88
2022-10-05T17:56:14.168Z,17.95
2022-10-05T18:01:17.179Z,17.67
2022-10-05T18:06:13.913Z,17.47
2022-10-05T18:11:13.945Z,17.73
2022-10-05T18:16:13.973Z,17.57
2022-10-05T18:21:13.706Z,17.48
2022-10-05T18:26:13.561Z,17.46
2022-10-05T18:31:13.555Z,17.51
2022-10-05T18:36:13.504Z,17.69
2022-10-05T18:41:13.552Z,17.38
2022-10-05T18:46:13.370Z,16.98
2022-10-05T18:51:13.286Z,17.13
2022-10-05T18:56:13.178Z,16.89
2022-10-05T19:01:16.256Z,16.68
2022-10-05T19:06:13.382Z,16.33
2022-10-05T19:11:13.011Z,16.58
2022-10-05T19:16:12.953Z,16.49
2022-10-05T19:21:12.978Z,16.56
2022-10-05T19:26:12.807Z,16.67
2022-10-05T19:31:12.825Z,16.96
2022-10-05T19:36:12.626Z,17.08
2022-10-05T19:41:12.672Z,17.33
2022-10-05T19:46:16.284Z,17.18
2022-10-05T19:51:13.583Z,17.38
2022-10-05T19:56:12.376Z,17.32
2022-10-05T20:01:23.175Z,17.70
2022-10-05T20:06:19.756Z,17.43
2022-10-05T20:11:12.206Z,17.18
2022-10-05T20:16:12.179Z,17.29
2022-10-05T20:21:12.114Z,17.63
2022-10-05T20:26:11.985Z,17.54
2022-10-05T20:31:12.548Z,17.57
2022-10-05T20:36:11.852Z,17.57
2022-10-05T20:41:11.811Z,17.73
2022-10-05T20:46:11.698Z,18.07
2022-10-05T20:51:11.676Z,18.21
2022-10-05T20:56:11.578Z,18.10
2022-10-05T21:01:15.177Z,17.88
2022-10-05T21:06:11.466Z,17.62
2022-10-05T21:11:11.416Z,17.73
2022-10-05T21:16:11.361Z,17.48
2022-10-05T21:21:11.286Z,17.63
2022-10-05T21:26:11.257Z,17.53
2022-10-05T21:31:11.437Z,17.66
2022-10-05T21:36:11.068Z,17.95
2022-10-05T21:41:11.064Z,17.81
2022-10-05T21:46:10.947Z,17.74
2022-10-05T21:51:10.914Z,17.62
2022-10-05T21:56:10.884Z,17.44
2022-10-05T22:01:13.820Z,17.17
2022-10-05T22:06:10.651Z,16.83
2022-10-05T22:11:11.238Z,16.92
2022-10-05T22:16:10.609Z,16.93
2022-10-05T22:21:10.486Z,16.80
2022-10-05T22:26:10.376Z,16.86
2022-10-05T22:31:10.339Z,16.65
2022-10-05T22:36:10.284Z,16.59
2022-10-05T22:41:10.224Z,16.50
2022-10-05T22:46:10.304Z,16.49
2022-10-05T22:51:10.127Z,16.63
2022-10-05T22:56:09.992Z,16.83
2022-10-05T23:01:12.987Z,16.96
2022-10-05T23:06:09.902Z,16.89
2022-10-05T23:11:09.853Z,17.11
2022-10-05T23:16:09.812Z,17.23
2022-10-05T23:21:10.246Z,17.08
2022-10-05T23:26:09.583Z,17.15
2022-10-05T23:31:09.622Z,17.50
2022-10-05T23:36:09.478Z,17.71
2022-10-05T23:41:09.455Z,17.66
2022-10-05T23:46:09.390Z,17.59
2022-10-05T23:51:09.529Z,17.22
2022-10-05T23:56:09.453Z,17.30
